Skrydstrup Air Base

EKSP · 南丹麦大区, 丹麦

罗盘
风向 的 风向 190° Skrydstrup Air Base 10L/28R
风向 到 风: 21 kt, 阵阵 32 kt, 5 beaufort

1 kt

21 kt
改变
0 ft 1.000 2.000 3.000 4.000 5.000
Cloud Cloud
FEW 2.000
Cloud Cloud Cloud Cloud Cloud Cloud
BKN 3.400
METAR EKSP 231642Z 19021G32KT 8000 FEW020TCU BKN034 05/03 Q0990

METAR Skrydstrup Air Base - EKSP/SKS

Skrydstrup Air Base是,丹麦中的中型机场。 该机场位于纬度55,22008和经度9,26626。 该机场有2条跑道: 10L/28R 和 10R/28L. 本场的ICAO机场代码为EKSP。 该机场的IATA代码为SKS。 机场在Kobenhavn FIR中。

该航空气象观测是针对Skrydstrup Air Base在2024年2月23日 17:42, 当地时间进行的。

机场观察

风向为190°,速度为21 kt。 已测得32 kt的阵风。

可见度为8 km。

有几云 高耸的积云在2.000 ft的高度 和 碎云在3.400 ft的高度。 破损或更高的上限为3.400 ft。

温度为5 °C,阵风为-3 °C。 露点为3 °C,相对湿度为87%。 海平面上的气压为990 hPa (QNH)。

白天

今天,太阳从07:28升起,在17:44降落。 这适用于Skrydstrup Air Base,世界夏令时可能有所不同。 当地时间与世界标准时间之间的时差为+1 小时。 当前,没有夏令时有效。

公司介绍

我们没有关于这个机场的公司信息。

体会

到Vliegles.nl去找飞行课程,跳伞和其他飞行体验。 浏览页面,了解Skrydstrup Air Base附近所有可用的活动。 你也可以使用搜索功能来寻找你所在地附近的特定飞行课程、跳伞或其他飞行体验。

跑道

Id 标题 侧风 逆风 侧风 %
10L/28R 103°-283° 21-32 kt 1-2 kt 100 %
10R/28L 103°-283° 21-32 kt 1-2 kt 100 %

逆风成分最大的方向会被突出显示,并用于横风计算。 这并不一定意味着这个方向在使用。

乌云

2.000 ft FEW 几云 高耸的积云
3.400 ft BKN 碎云

温度 & 天气

温度 5 °C
露点 3 °C
相对湿度 87%
风寒 -3 °C
Kp-index 0 (0-9)

白天

日出
07:28 (13:24)
中午
12:36
日落
17:44

小工具

你想在你的网站上有一个关于Skrydstrup Air Base的当前航空天气(METAR)的小部件吗?

显示HTML代码
?>